Time;durP1;ratioP1;P1;durP2;ratioP2;P2;SDS_P1;SDS_P2;PMS_P1;PMS_P2;Temp;Humidity;BMP_temperature;BMP_pressure;BME280_temperature;BME280_humidity;BME280_pressure;Samples;Min_cycle;Max_cycle;Signal;HPM_P1;HPM_P2
2023/04/20 00:02:14;;;;;;;3.90;3.50;;;;;;;;;;5074865;28;20236;-66
2023/04/20 00:04:41;;;;;;;3.90;3.60;;;;;;;;;;5075156;28;20240;-66
2023/04/20 00:07:08;;;;;;;4.50;3.35;;;;;;;;;;5074900;28;20202;-66
2023/04/20 00:09:35;;;;;;;6.00;3.28;;;;;;;;;;5074826;28;20198;-66
2023/04/20 00:12:04;;;;;;;3.28;3.00;;;;;;;;;;5074205;28;20205;-66
2023/04/20 00:14:31;;;;;;;9.35;3.60;;;;;;;;;;5074651;28;20195;-66
2023/04/20 00:16:58;;;;;;;5.63;3.45;;;;;;;;;;5074853;28;20205;-66
2023/04/20 00:19:27;;;;;;;3.30;2.97;;;;;;;;;;5074154;28;20214;-66
2023/04/20 00:21:54;;;;;;;5.70;3.90;;;;;;;;;;5074364;28;20511;-66
2023/04/20 00:24:21;;;;;;;3.78;3.30;;;;;;;;;;5074536;28;20196;-67
2023/04/20 00:26:49;;;;;;;5.20;3.70;;;;;;;;;;5074563;28;20205;-66
2023/04/20 00:29:17;;;;;;;4.63;3.10;;;;;;;;;;5074421;28;20289;-66
2023/04/20 00:31:44;;;;;;;5.60;3.30;;;;;;;;;;5074409;28;20198;-66
2023/04/20 00:34:12;;;;;;;6.28;3.92;;;;;;;;;;5073849;28;20205;-67
2023/04/20 00:36:39;;;;;;;3.50;3.13;;;;;;;;;;5074908;28;20529;-66
2023/04/20 00:39:06;;;;;;;4.00;3.70;;;;;;;;;;5073736;28;20695;-66
2023/04/20 00:41:33;;;;;;;7.50;3.83;;;;;;;;;;5074444;28;20304;-66
2023/04/20 00:44:00;;;;;;;3.72;3.42;;;;;;;;;;5074328;28;20200;-66
2023/04/20 00:46:29;;;;;;;7.70;3.50;;;;;;;;;;5074362;28;20293;-66
2023/04/20 00:48:57;;;;;;;7.95;3.85;;;;;;;;;;5074018;28;20232;-67
2023/04/20 00:51:24;;;;;;;5.05;2.97;;;;;;;;;;5074039;28;20230;-66
2023/04/20 00:53:51;;;;;;;5.65;3.78;;;;;;;;;;5073822;28;20204;-66
2023/04/20 00:56:19;;;;;;;4.82;3.88;;;;;;;;;;5074431;28;20336;-68
2023/04/20 00:58:46;;;;;;;4.25;3.85;;;;;;;;;;5073459;28;20255;-66
2023/04/20 01:01:16;;;;;;;5.55;3.65;;;;;;;;;;5073848;28;20193;-66
2023/04/20 01:03:45;;;;;;;4.05;3.55;;;;;;;;;;5074259;28;20222;-67
2023/04/20 01:06:12;;;;;;;4.88;3.80;;;;;;;;;;5073791;28;20194;-67
2023/04/20 01:08:45;;;;;;;10.40;3.78;;;;;;;;;;5073639;28;20212;-66
2023/04/20 01:11:13;;;;;;;5.22;4.22;;;;;;;;;;5073438;28;20632;-66
2023/04/20 01:13:40;;;;;;;5.00;4.30;;;;;;;;;;5073619;28;20246;-66
2023/04/20 01:16:07;;;;;;;6.57;3.97;;;;;;;;;;5073728;28;20200;-66
2023/04/20 01:18:42;;;;;;;7.10;4.00;;;;;;;;;;5073521;28;20268;-66
2023/04/20 01:21:12;;;;;;;4.78;3.83;;;;;;;;;;5073328;28;20182;-67
2023/04/20 01:23:40;;;;;;;4.43;4.03;;;;;;;;;;5073076;28;20252;-67
2023/04/20 01:26:08;;;;;;;4.78;4.05;;;;;;;;;;5073260;28;20194;-67
2023/04/20 01:28:35;;;;;;;4.53;4.10;;;;;;;;;;5073453;28;20569;-66
2023/04/20 01:31:02;;;;;;;4.68;4.18;;;;;;;;;;5073511;28;20204;-66
2023/04/20 01:33:30;;;;;;;10.45;4.88;;;;;;;;;;5073555;28;20198;-66
2023/04/20 01:35:57;;;;;;;5.07;4.57;;;;;;;;;;5074078;28;20201;-66
2023/04/20 01:38:25;;;;;;;9.82;5.05;;;;;;;;;;5073507;28;20228;-67
2023/04/20 01:40:54;;;;;;;6.22;4.85;;;;;;;;;;5073830;28;20225;-66
2023/04/20 01:43:22;;;;;;;6.10;5.00;;;;;;;;;;5073326;28;20197;-67
2023/04/20 01:45:49;;;;;;;6.43;4.35;;;;;;;;;;5073395;28;20204;-66
2023/04/20 01:48:17;;;;;;;5.20;4.70;;;;;;;;;;5073618;28;20202;-66
2023/04/20 01:50:44;;;;;;;5.88;5.30;;;;;;;;;;5073257;28;20194;-66
2023/04/20 01:53:12;;;;;;;7.25;4.45;;;;;;;;;;5073016;28;20202;-66
2023/04/20 01:55:40;;;;;;;6.75;3.95;;;;;;;;;;5073225;28;20205;-66
2023/04/20 01:58:08;;;;;;;7.93;5.20;;;;;;;;;;5072897;28;20194;-66
2023/04/20 02:00:35;;;;;;;7.40;4.63;;;;;;;;;;5073180;28;20216;-66
2023/04/20 02:03:02;;;;;;;6.45;4.50;;;;;;;;;;5072974;28;20194;-66
2023/04/20 02:05:30;;;;;;;9.00;5.10;;;;;;;;;;5073222;28;20221;-66
2023/04/20 02:07:57;;;;;;;7.80;4.93;;;;;;;;;;5073463;28;20284;-66
2023/04/20 02:10:24;;;;;;;9.52;5.80;;;;;;;;;;5073331;28;20200;-66
2023/04/20 02:12:51;;;;;;;7.05;4.85;;;;;;;;;;5073257;28;20263;-66
2023/04/20 02:15:20;;;;;;;8.63;4.63;;;;;;;;;;5073011;28;20205;-66
2023/04/20 02:17:50;;;;;;;5.13;4.32;;;;;;;;;;5072732;28;20194;-67
2023/04/20 02:20:19;;;;;;;5.28;4.25;;;;;;;;;;5072647;28;20206;-66
2023/04/20 02:22:46;;;;;;;6.82;4.75;;;;;;;;;;5073058;28;20198;-66
2023/04/20 02:25:13;;;;;;;4.70;4.30;;;;;;;;;;5072525;28;20198;-67
2023/04/20 02:27:41;;;;;;;6.13;4.40;;;;;;;;;;5072979;28;20649;-67
2023/04/20 02:30:09;;;;;;;4.82;4.35;;;;;;;;;;5072527;28;20652;-67
2023/04/20 02:32:38;;;;;;;4.38;3.97;;;;;;;;;;5073004;28;20231;-67
2023/04/20 02:35:05;;;;;;;4.35;3.67;;;;;;;;;;5075641;28;20201;-67
2023/04/20 02:37:32;;;;;;;6.20;5.03;;;;;;;;;;5076616;28;20572;-66
2023/04/20 02:39:59;;;;;;;4.50;4.10;;;;;;;;;;5076430;28;20222;-67
2023/04/20 02:42:26;;;;;;;5.82;4.90;;;;;;;;;;5076497;28;20284;-66
2023/04/20 02:44:54;;;;;;;6.45;4.60;;;;;;;;;;5076639;28;20195;-66
2023/04/20 02:47:21;;;;;;;6.15;4.90;;;;;;;;;;5076364;28;20198;-66
2023/04/20 02:49:50;;;;;;;5.43;4.93;;;;;;;;;;5076811;28;20548;-66
2023/04/20 02:52:17;;;;;;;6.25;4.40;;;;;;;;;;5076336;28;20201;-66
2023/04/20 02:54:44;;;;;;;4.68;4.28;;;;;;;;;;5076610;28;20191;-66
2023/04/20 02:57:11;;;;;;;6.05;4.47;;;;;;;;;;5075940;28;20739;-66
2023/04/20 02:59:38;;;;;;;13.52;5.35;;;;;;;;;;5076021;28;20568;-66
2023/04/20 03:02:05;;;;;;;6.85;4.68;;;;;;;;;;5076540;28;20213;-66
2023/04/20 03:04:33;;;;;;;5.25;4.20;;;;;;;;;;5076323;28;20230;-66
2023/04/20 03:07:03;;;;;;;4.50;4.10;;;;;;;;;;5075688;28;20231;-66
2023/04/20 03:09:30;;;;;;;7.30;4.22;;;;;;;;;;5076500;28;20636;-67
2023/04/20 03:11:58;;;;;;;5.63;4.22;;;;;;;;;;5075983;28;20194;-66
2023/04/20 03:14:25;;;;;;;5.25;4.85;;;;;;;;;;5075950;28;20551;-66
2023/04/20 03:16:52;;;;;;;4.55;4.15;;;;;;;;;;5075792;28;20552;-66
2023/04/20 03:19:20;;;;;;;5.65;4.60;;;;;;;;;;5075656;28;20679;-66
2023/04/20 03:21:47;;;;;;;5.95;4.65;;;;;;;;;;5075738;28;20229;-66
2023/04/20 03:24:15;;;;;;;6.82;5.50;;;;;;;;;;5075751;28;20280;-66
2023/04/20 03:26:43;;;;;;;5.97;4.78;;;;;;;;;;5075374;28;20256;-66
2023/04/20 03:29:10;;;;;;;5.85;4.57;;;;;;;;;;5075976;28;20220;-66
2023/04/20 03:31:37;;;;;;;5.07;4.50;;;;;;;;;;5075522;28;20274;-66
2023/04/20 03:34:04;;;;;;;5.82;5.05;;;;;;;;;;5075870;28;20202;-67
2023/04/20 03:36:32;;;;;;;7.18;6.10;;;;;;;;;;5075165;28;20647;-68
2023/04/20 03:38:59;;;;;;;7.28;5.22;;;;;;;;;;5075406;28;20569;-67
2023/04/20 03:41:28;;;;;;;7.28;5.68;;;;;;;;;;5075132;28;20655;-68
2023/04/20 03:43:55;;;;;;;7.32;5.45;;;;;;;;;;5075579;28;20193;-68
2023/04/20 03:46:22;;;;;;;7.63;5.75;;;;;;;;;;5074406;28;20651;-67
2023/04/20 03:48:49;;;;;;;6.28;5.68;;;;;;;;;;5075280;28;20201;-68
2023/04/20 03:51:16;;;;;;;10.65;5.22;;;;;;;;;;5075433;28;20195;-69
2023/04/20 03:53:44;;;;;;;7.35;4.97;;;;;;;;;;5075710;28;20196;-69
2023/04/20 03:56:11;;;;;;;6.75;6.00;;;;;;;;;;5086538;28;20209;-69
2023/04/20 03:58:39;;;;;;;6.10;5.32;;;;;;;;;;5095074;28;20193;-68
2023/04/20 04:01:08;;;;;;;6.38;5.28;;;;;;;;;;5094581;28;20189;-69
2023/04/20 04:03:35;;;;;;;6.75;5.60;;;;;;;;;;5095093;28;20229;-69
2023/04/20 04:06:02;;;;;;;6.53;5.88;;;;;;;;;;5094701;28;20193;-69
2023/04/20 04:08:30;;;;;;;8.68;5.22;;;;;;;;;;5094954;28;20200;-69
2023/04/20 04:10:57;;;;;;;8.82;5.30;;;;;;;;;;5095229;28;20199;-69
2023/04/20 04:13:24;;;;;;;8.27;5.07;;;;;;;;;;5094758;28;20673;-68
2023/04/20 04:15:53;;;;;;;12.45;6.40;;;;;;;;;;5094816;28;20194;-69
2023/04/20 04:18:21;;;;;;;7.97;5.47;;;;;;;;;;5095049;28;20193;-69
2023/04/20 04:20:48;;;;;;;5.90;5.03;;;;;;;;;;5094937;28;20224;-69
2023/04/20 04:23:15;;;;;;;8.43;5.55;;;;;;;;;;5095124;28;20200;-69
2023/04/20 04:25:42;;;;;;;7.45;5.68;;;;;;;;;;5094692;28;20196;-69
2023/04/20 04:28:10;;;;;;;5.65;5.25;;;;;;;;;;5094287;28;20200;-68
2023/04/20 04:30:37;;;;;;;10.57;5.50;;;;;;;;;;5094817;28;20201;-77
2023/04/20 04:33:06;;;;;;;6.57;4.47;;;;;;;;;;5094510;28;20197;-69
2023/04/20 04:35:33;;;;;;;8.07;6.10;;;;;;;;;;5094601;28;20193;-69
2023/04/20 04:38:01;;;;;;;8.82;6.32;;;;;;;;;;5094161;28;20246;-68
2023/04/20 04:40:28;;;;;;;8.02;5.45;;;;;;;;;;5094128;28;20221;-69
2023/04/20 04:42:55;;;;;;;5.72;5.22;;;;;;;;;;5094429;28;20638;-68
2023/04/20 04:45:24;;;;;;;8.80;4.95;;;;;;;;;;5094593;28;20250;-68
2023/04/20 04:47:52;;;;;;;8.20;5.65;;;;;;;;;;5093893;28;20194;-69
2023/04/20 04:50:21;;;;;;;7.22;5.90;;;;;;;;;;5094406;28;20205;-69
2023/04/20 04:52:48;;;;;;;5.70;5.18;;;;;;;;;;5094327;28;20198;-69
2023/04/20 04:55:15;;;;;;;7.05;5.18;;;;;;;;;;5094615;28;20190;-69
2023/04/20 04:57:43;;;;;;;13.88;5.65;;;;;;;;;;5094020;28;20197;-69
2023/04/20 05:00:11;;;;;;;6.00;5.07;;;;;;;;;;5094000;28;20212;-69
2023/04/20 05:02:38;;;;;;;11.07;5.30;;;;;;;;;;5093994;28;20280;-69
2023/04/20 05:05:07;;;;;;;7.63;5.15;;;;;;;;;;5094715;28;20672;-69
2023/04/20 05:07:37;;;;;;;8.05;5.25;;;;;;;;;;5093581;28;20197;-69
2023/04/20 05:10:04;;;;;;;12.35;5.82;;;;;;;;;;5093719;28;20208;-68
2023/04/20 05:12:31;;;;;;;6.32;5.70;;;;;;;;;;5094089;28;20194;-69
2023/04/20 05:14:59;;;;;;;6.20;5.63;;;;;;;;;;5093591;28;20207;-69
2023/04/20 05:17:26;;;;;;;7.65;5.90;;;;;;;;;;5093738;28;20194;-69
2023/04/20 05:19:53;;;;;;;6.93;5.25;;;;;;;;;;5093511;28;20754;-69
2023/04/20 05:22:20;;;;;;;7.93;5.85;;;;;;;;;;5093794;28;20196;-69
2023/04/20 05:24:49;;;;;;;5.82;4.97;;;;;;;;;;5094118;28;20201;-69
2023/04/20 05:27:16;;;;;;;8.80;5.70;;;;;;;;;;5093923;28;20259;-69
2023/04/20 05:29:43;;;;;;;5.30;4.68;;;;;;;;;;5094127;28;20555;-69
2023/04/20 05:32:10;;;;;;;12.27;5.03;;;;;;;;;;5093610;28;20543;-69
2023/04/20 05:34:37;;;;;;;6.60;5.90;;;;;;;;;;5094459;28;20215;-69
2023/04/20 05:37:05;;;;;;;7.18;4.65;;;;;;;;;;5092912;28;20199;-69
2023/04/20 05:39:32;;;;;;;7.13;5.85;;;;;;;;;;5093231;28;20570;-69
2023/04/20 05:42:01;;;;;;;5.22;4.70;;;;;;;;;;5093575;28;20559;-69
2023/04/20 05:44:28;;;;;;;4.85;4.45;;;;;;;;;;5093534;28;20651;-69
2023/04/20 05:46:55;;;;;;;5.85;5.25;;;;;;;;;;5093530;28;20562;-68
2023/04/20 05:49:22;;;;;;;5.10;4.60;;;;;;;;;;5093685;28;20228;-68
2023/04/20 05:51:49;;;;;;;6.50;4.40;;;;;;;;;;5093401;28;20204;-69
2023/04/20 05:54:17;;;;;;;5.60;5.00;;;;;;;;;;5093128;28;20198;-69
2023/04/20 05:56:44;;;;;;;6.60;5.03;;;;;;;;;;5092955;28;20658;-69
2023/04/20 05:59:12;;;;;;;9.60;6.57;;;;;;;;;;5092866;28;20654;-69
2023/04/20 06:01:40;;;;;;;11.10;4.90;;;;;;;;;;5093341;28;20288;-69
2023/04/20 06:04:07;;;;;;;7.57;5.32;;;;;;;;;;5093101;28;20229;-69
2023/04/20 06:06:34;;;;;;;6.20;5.60;;;;;;;;;;5093637;28;20250;-69
2023/04/20 06:09:02;;;;;;;8.32;6.63;;;;;;;;;;5094472;28;20201;-69
2023/04/20 06:11:30;;;;;;;5.38;4.57;;;;;;;;;;5097196;28;20703;-69
2023/04/20 06:13:57;;;;;;;6.30;5.20;;;;;;;;;;5097363;28;20223;-69
2023/04/20 06:16:25;;;;;;;6.68;6.03;;;;;;;;;;5097185;28;20292;-69
2023/04/20 06:18:57;;;;;;;6.32;5.05;;;;;;;;;;5096933;28;20285;-69
2023/04/20 06:21:26;;;;;;;6.40;5.38;;;;;;;;;;5097248;28;20362;-70
2023/04/20 06:23:53;;;;;;;5.35;4.68;;;;;;;;;;5097393;28;20219;-69
2023/04/20 06:26:20;;;;;;;7.00;4.97;;;;;;;;;;5097124;28;20203;-69
2023/04/20 06:28:50;;;;;;;9.20;6.93;;;;;;;;;;5096931;28;20224;-70
2023/04/20 06:31:17;;;;;;;14.63;8.98;;;;;;;;;;5096938;28;20543;-69
2023/04/20 06:33:46;;;;;;;13.15;6.07;;;;;;;;;;5096964;28;20194;-69
2023/04/20 06:36:13;;;;;;;7.18;5.03;;;;;;;;;;5096567;28;20724;-69
2023/04/20 06:38:40;;;;;;;5.72;5.13;;;;;;;;;;5096588;28;20539;-69
2023/04/20 06:41:07;;;;;;;8.15;5.80;;;;;;;;;;5097264;28;20306;-69
2023/04/20 06:43:35;;;;;;;7.63;6.43;;;;;;;;;;5096972;28;20197;-69
2023/04/20 06:46:02;;;;;;;7.35;5.65;;;;;;;;;;5096674;28;20190;-69
2023/04/20 06:48:29;;;;;;;6.07;5.43;;;;;;;;;;5096902;28;20192;-69
2023/04/20 06:50:57;;;;;;;10.85;5.93;;;;;;;;;;5096692;28;20198;-69
2023/04/20 06:53:25;;;;;;;7.25;5.47;;;;;;;;;;5096148;28;20193;-69
2023/04/20 06:55:54;;;;;;;6.55;5.22;;;;;;;;;;5096549;28;20197;-69
2023/04/20 06:58:21;;;;;;;6.40;5.80;;;;;;;;;;5096227;28;20201;-69
2023/04/20 07:00:48;;;;;;;7.35;5.95;;;;;;;;;;5097223;28;20225;-69
2023/04/20 07:03:17;;;;;;;8.02;5.95;;;;;;;;;;5095869;28;20234;-69
2023/04/20 07:05:44;;;;;;;7.25;5.70;;;;;;;;;;5096390;28;20214;-69
2023/04/20 07:08:14;;;;;;;8.43;5.65;;;;;;;;;;5096077;28;20288;-69
2023/04/20 07:10:41;;;;;;;6.28;5.65;;;;;;;;;;5096219;28;20204;-69
2023/04/20 07:13:08;;;;;;;6.32;5.55;;;;;;;;;;5095851;28;20671;-69
2023/04/20 07:15:35;;;;;;;6.70;6.00;;;;;;;;;;5096387;28;20527;-70
2023/04/20 07:18:03;;;;;;;8.45;7.35;;;;;;;;;;5096165;28;20302;-71
2023/04/20 07:20:30;;;;;;;7.90;6.15;;;;;;;;;;5094568;28;20316;-68
2023/04/20 07:22:57;;;;;;;6.90;5.85;;;;;;;;;;5095639;28;20193;-69
2023/04/20 07:25:26;;;;;;;10.45;7.75;;;;;;;;;;5095700;28;20197;-68
2023/04/20 07:27:53;;;;;;;7.47;6.38;;;;;;;;;;5095527;28;20676;-68
2023/04/20 07:30:20;;;;;;;9.68;6.70;;;;;;;;;;5095806;28;20197;-68
2023/04/20 07:32:47;;;;;;;7.40;6.65;;;;;;;;;;5095703;28;20209;-68
2023/04/20 07:35:14;;;;;;;12.10;6.85;;;;;;;;;;5095506;28;20199;-68
2023/04/20 07:37:42;;;;;;;9.68;6.50;;;;;;;;;;5095573;28;20197;-68
2023/04/20 07:40:09;;;;;;;8.52;6.45;;;;;;;;;;5095265;28;20249;-68
2023/04/20 07:42:38;;;;;;;8.15;6.57;;;;;;;;;;5083327;28;20192;-68
2023/04/20 07:45:06;;;;;;;7.90;6.70;;;;;;;;;;5075604;28;20224;-68
2023/04/20 07:47:34;;;;;;;8.45;6.68;;;;;;;;;;5075287;28;20204;-67
2023/04/20 07:50:01;;;;;;;9.50;8.48;;;;;;;;;;5075184;28;20203;-68
2023/04/20 07:52:28;;;;;;;10.05;7.47;;;;;;;;;;5075048;28;20644;-67
2023/04/20 07:54:56;;;;;;;11.93;7.75;;;;;;;;;;5075191;28;20194;-68
2023/04/20 07:57:24;;;;;;;8.30;6.80;;;;;;;;;;5074757;28;20239;-68
2023/04/20 07:59:52;;;;;;;9.38;7.78;;;;;;;;;;5074647;28;20267;-67
2023/04/20 08:02:19;;;;;;;11.10;7.38;;;;;;;;;;5075355;28;20306;-68
2023/04/20 08:04:48;;;;;;;9.93;7.20;;;;;;;;;;5075340;28;20229;-67
2023/04/20 08:07:16;;;;;;;9.20;6.75;;;;;;;;;;5075266;28;20666;-68
2023/04/20 08:09:43;;;;;;;9.80;7.95;;;;;;;;;;5074810;28;20191;-68
2023/04/20 08:12:11;;;;;;;8.70;7.60;;;;;;;;;;5074501;28;20202;-67
2023/04/20 08:14:39;;;;;;;10.18;8.10;;;;;;;;;;5074738;28;20197;-67
2023/04/20 08:17:07;;;;;;;9.80;8.65;;;;;;;;;;5075276;28;20201;-67
2023/04/20 08:19:35;;;;;;;9.70;7.90;;;;;;;;;;5074163;28;20197;-68
2023/04/20 08:22:02;;;;;;;11.05;7.68;;;;;;;;;;5074304;28;20705;-67
2023/04/20 08:24:29;;;;;;;12.38;7.10;;;;;;;;;;5074413;28;20194;-67
2023/04/20 08:26:58;;;;;;;11.10;7.50;;;;;;;;;;5074272;28;20284;-67
2023/04/20 08:29:25;;;;;;;9.18;6.85;;;;;;;;;;5074325;28;20221;-68
2023/04/20 08:31:52;;;;;;;8.63;7.13;;;;;;;;;;5073925;28;20202;-68
2023/04/20 08:34:21;;;;;;;11.93;8.73;;;;;;;;;;5074621;28;20190;-68
2023/04/20 08:36:49;;;;;;;8.00;7.05;;;;;;;;;;5074246;28;20194;-67
2023/04/20 08:39:22;;;;;;;11.10;7.72;;;;;;;;;;5074122;28;20201;-67
2023/04/20 08:41:52;;;;;;;10.10;7.93;;;;;;;;;;5074310;28;20240;-66
2023/04/20 08:44:19;;;;;;;13.27;7.65;;;;;;;;;;5073669;28;20196;-68
2023/04/20 08:46:48;;;;;;;8.85;7.95;;;;;;;;;;5074241;28;20198;-68
2023/04/20 08:49:16;;;;;;;9.35;7.22;;;;;;;;;;5074006;28;20198;-68
2023/04/20 08:51:45;;;;;;;7.82;6.95;;;;;;;;;;5073958;28;20204;-72
2023/04/20 08:54:13;;;;;;;7.82;6.55;;;;;;;;;;5073534;28;20680;-68
2023/04/20 08:56:41;;;;;;;11.35;7.97;;;;;;;;;;5073962;28;20563;-66
2023/04/20 08:59:09;;;;;;;8.10;6.70;;;;;;;;;;5073866;28;20193;-68
2023/04/20 09:01:36;;;;;;;9.57;7.50;;;;;;;;;;5073779;28;20224;-67
2023/04/20 09:04:15;;;;;;;10.45;7.60;;;;;;;;;;5073743;28;20222;-68
2023/04/20 09:06:45;;;;;;;8.63;6.20;;;;;;;;;;5074313;28;20192;-68
2023/04/20 09:09:12;;;;;;;10.55;7.43;;;;;;;;;;5073732;28;20221;-68
2023/04/20 09:11:40;;;;;;;14.48;7.65;;;;;;;;;;5073672;28;20198;-67
2023/04/20 09:14:11;;;;;;;11.18;8.13;;;;;;;;;;5073385;28;20232;-68
2023/04/20 09:16:38;;;;;;;10.97;7.80;;;;;;;;;;5073643;28;20187;-67
2023/04/20 09:19:06;;;;;;;8.38;7.47;;;;;;;;;;5073793;28;20442;-68
2023/04/20 09:21:33;;;;;;;9.50;7.43;;;;;;;;;;5073090;28;20210;-68
2023/04/20 09:24:05;;;;;;;7.88;6.90;;;;;;;;;;5073273;28;20444;-67
2023/04/20 09:26:33;;;;;;;10.17;7.90;;;;;;;;;;5073474;28;20194;-67
2023/04/20 09:29:01;;;;;;;10.73;8.20;;;;;;;;;;5073126;28;20439;-67
2023/04/20 09:31:28;;;;;;;8.20;7.50;;;;;;;;;;5073033;28;20452;-67
2023/04/20 09:33:59;;;;;;;8.88;7.63;;;;;;;;;;5073329;28;20484;-67
2023/04/20 09:36:36;;;;;;;11.20;8.05;;;;;;;;;;5072952;28;20197;-67
2023/04/20 09:39:07;;;;;;;13.73;8.00;;;;;;;;;;5073510;28;20186;-67
2023/04/20 09:41:36;;;;;;;10.13;8.70;;;;;;;;;;5073173;28;20482;-67
2023/04/20 09:44:03;;;;;;;8.38;7.53;;;;;;;;;;5072186;28;20229;-67
2023/04/20 09:46:31;;;;;;;9.23;8.20;;;;;;;;;;5073220;28;20310;-67
2023/04/20 09:48:59;;;;;;;12.17;7.67;;;;;;;;;;5073192;28;20205;-67
2023/04/20 09:51:27;;;;;;;11.45;7.43;;;;;;;;;;5073610;28;20502;-67
2023/04/20 09:53:55;;;;;;;12.38;6.50;;;;;;;;;;5073543;28;20300;-67
2023/04/20 09:56:24;;;;;;;12.75;8.38;;;;;;;;;;5073102;28;20198;-67
2023/04/20 09:58:52;;;;;;;9.40;8.50;;;;;;;;;;5072834;28;20285;-67
2023/04/20 10:01:19;;;;;;;19.02;7.85;;;;;;;;;;5073015;28;20573;-67
2023/04/20 10:03:47;;;;;;;10.03;9.03;;;;;;;;;;5073334;28;20214;-67
2023/04/20 10:06:21;;;;;;;11.13;8.20;;;;;;;;;;5073206;28;20535;-67
2023/04/20 10:08:49;;;;;;;9.80;8.60;;;;;;;;;;5073037;28;20766;-67
2023/04/20 10:11:28;;;;;;;11.30;7.33;;;;;;;;;;5072947;28;20940;-67
2023/04/20 10:13:55;;;;;;;8.90;8.00;;;;;;;;;;5072943;28;20441;-67
2023/04/20 10:16:23;;;;;;;10.70;8.90;;;;;;;;;;5073022;28;20205;-67
2023/04/20 10:18:56;;;;;;;10.00;7.90;;;;;;;;;;5073080;28;20194;-67
2023/04/20 10:21:24;;;;;;;11.27;9.07;;;;;;;;;;5072395;28;20230;-67
2023/04/20 10:23:51;;;;;;;9.97;9.00;;;;;;;;;;5072924;28;20440;-68
2023/04/20 10:26:19;;;;;;;8.35;7.53;;;;;;;;;;5072932;28;20436;-67
2023/04/20 10:28:48;;;;;;;10.47;9.30;;;;;;;;;;5072475;28;20671;-67
2023/04/20 10:31:15;;;;;;;9.70;8.40;;;;;;;;;;5072387;28;20433;-67
2023/04/20 10:33:55;;;;;;;9.30;8.40;;;;;;;;;;5072831;28;20461;-67
2023/04/20 10:36:24;;;;;;;8.33;7.53;;;;;;;;;;5072768;28;20644;-67
2023/04/20 10:38:52;;;;;;;14.23;9.10;;;;;;;;;;5072163;28;20448;-67
2023/04/20 10:41:20;;;;;;;9.63;8.25;;;;;;;;;;5072356;28;20214;-67
2023/04/20 10:43:48;;;;;;;10.50;7.80;;;;;;;;;;5072736;28;20237;-67
2023/04/20 10:46:16;;;;;;;9.23;8.33;;;;;;;;;;5072787;28;20225;-67
2023/04/20 10:48:51;;;;;;;12.07;9.60;;;;;;;;;;5072854;28;20456;-67
2023/04/20 10:51:18;;;;;;;14.53;10.70;;;;;;;;;;5072302;28;20440;-67
2023/04/20 10:53:45;;;;;;;8.13;7.33;;;;;;;;;;5071407;28;20508;-67
2023/04/20 10:56:13;;;;;;;9.87;8.70;;;;;;;;;;5075519;28;20440;-67
2023/04/20 10:58:41;;;;;;;8.07;7.27;;;;;;;;;;5076554;28;20448;-67
2023/04/20 11:01:09;;;;;;;9.53;8.40;;;;;;;;;;5076016;28;20488;-67
2023/04/20 11:03:37;;;;;;;11.90;7.73;;;;;;;;;;5075709;28;21055;-67
2023/04/20 11:06:04;;;;;;;8.00;7.30;;;;;;;;;;5075995;28;20527;-67
2023/04/20 11:08:38;;;;;;;8.53;7.07;;;;;;;;;;5075977;28;20480;-68
2023/04/20 11:11:06;;;;;;;8.17;7.47;;;;;;;;;;5075494;28;20435;-67
2023/04/20 11:13:33;;;;;;;10.50;9.20;;;;;;;;;;5076023;28;20525;-67
2023/04/20 11:16:01;;;;;;;7.90;7.07;;;;;;;;;;5075382;28;20950;-67
2023/04/20 11:18:30;;;;;;;7.80;7.00;;;;;;;;;;5075556;28;20438;-67
2023/04/20 11:20:58;;;;;;;7.20;6.50;;;;;;;;;;5075490;28;20437;-67
2023/04/20 11:23:26;;;;;;;8.43;7.63;;;;;;;;;;5075546;28;20446;-67
2023/04/20 11:25:54;;;;;;;7.47;6.77;;;;;;;;;;5076377;28;20442;-66
2023/04/20 11:28:21;;;;;;;7.47;6.77;;;;;;;;;;5075629;28;20444;-66
2023/04/20 11:30:49;;;;;;;7.50;6.90;;;;;;;;;;5074975;28;20463;-67
2023/04/20 11:33:26;;;;;;;7.83;7.17;;;;;;;;;;5075160;28;20452;-66
2023/04/20 11:35:56;;;;;;;7.00;6.30;;;;;;;;;;5075985;28;20853;-66
2023/04/20 11:38:27;;;;;;;10.73;6.40;;;;;;;;;;5075078;28;20512;-66
2023/04/20 11:40:54;;;;;;;7.40;6.70;;;;;;;;;;5075407;28;20453;-66
2023/04/20 11:43:21;;;;;;;10.90;7.20;;;;;;;;;;5074964;28;20482;-66
2023/04/20 11:45:49;;;;;;;7.70;6.57;;;;;;;;;;5075210;28;20441;-66
2023/04/20 11:48:17;;;;;;;7.23;6.63;;;;;;;;;;5074965;28;20452;-66
2023/04/20 11:50:44;;;;;;;8.63;6.87;;;;;;;;;;5075042;28;20449;-66
2023/04/20 11:53:14;;;;;;;8.00;7.20;;;;;;;;;;5074689;28;20442;-66
2023/04/20 11:55:41;;;;;;;7.17;6.57;;;;;;;;;;5074657;28;20445;-66
2023/04/20 11:58:08;;;;;;;9.20;6.70;;;;;;;;;;5074859;28;20531;-66
2023/04/20 12:00:36;;;;;;;7.43;6.43;;;;;;;;;;5074638;28;20927;-66
2023/04/20 12:03:03;;;;;;;7.60;6.80;;;;;;;;;;5074605;28;20495;-66
2023/04/20 12:05:30;;;;;;;7.40;6.70;;;;;;;;;;5075742;28;20435;-66
2023/04/20 12:07:57;;;;;;;7.53;6.20;;;;;;;;;;5073800;28;20539;-66
2023/04/20 12:10:26;;;;;;;6.97;6.20;;;;;;;;;;5074441;28;20449;-66
2023/04/20 12:12:53;;;;;;;6.30;5.80;;;;;;;;;;5075033;28;20449;-66
2023/04/20 12:15:21;;;;;;;8.10;7.30;;;;;;;;;;5074701;28;20452;-66
2023/04/20 12:17:48;;;;;;;10.20;7.77;;;;;;;;;;5078612;28;20443;-66
2023/04/20 12:20:15;;;;;;;7.50;6.70;;;;;;;;;;5094428;28;20439;-66
2023/04/20 12:22:42;;;;;;;7.60;6.90;;;;;;;;;;5094282;28;20483;-66
2023/04/20 12:25:10;;;;;;;6.63;6.03;;;;;;;;;;5094327;28;20442;-66
2023/04/20 12:27:38;;;;;;;6.20;5.70;;;;;;;;;;5094648;28;20443;-66
2023/04/20 12:30:08;;;;;;;6.07;5.57;;;;;;;;;;5094703;28;20462;-66
2023/04/20 12:32:35;;;;;;;6.20;5.40;;;;;;;;;;5094805;28;20922;-66
2023/04/20 12:35:02;;;;;;;6.17;5.67;;;;;;;;;;5094294;28;20450;-65
2023/04/20 12:37:29;;;;;;;6.50;6.00;;;;;;;;;;5094110;28;20927;-66
2023/04/20 12:39:57;;;;;;;6.70;6.10;;;;;;;;;;5094504;28;20446;-66
2023/04/20 12:42:24;;;;;;;7.53;6.87;;;;;;;;;;5094303;28;20506;-66
2023/04/20 12:44:55;;;;;;;8.00;6.60;;;;;;;;;;5094124;28;20450;-67
2023/04/20 12:47:22;;;;;;;6.63;5.97;;;;;;;;;;5093837;28;20435;-66
2023/04/20 12:49:49;;;;;;;6.60;6.10;;;;;;;;;;5094182;28;20441;-66
2023/04/20 12:52:16;;;;;;;7.17;5.60;;;;;;;;;;5094289;28;20475;-66
2023/04/20 12:54:43;;;;;;;7.03;5.73;;;;;;;;;;5094203;28;20519;-66
2023/04/20 12:57:11;;;;;;;6.87;6.37;;;;;;;;;;5094104;28;20531;-66
2023/04/20 12:59:38;;;;;;;6.57;5.97;;;;;;;;;;5093756;28;20443;-66
2023/04/20 13:02:06;;;;;;;6.47;5.90;;;;;;;;;;5093591;28;20480;-66
2023/04/20 13:04:35;;;;;;;6.70;6.03;;;;;;;;;;5093895;28;20580;-66
2023/04/20 13:07:02;;;;;;;6.57;6.00;;;;;;;;;;5094572;28;20494;-66
2023/04/20 13:09:29;;;;;;;12.80;6.10;;;;;;;;;;5093765;28;20463;-66
2023/04/20 13:11:56;;;;;;;7.30;6.60;;;;;;;;;;5093784;28;20436;-66
2023/04/20 13:14:23;;;;;;;7.00;6.40;;;;;;;;;;5093686;28;20506;-66
2023/04/20 13:16:51;;;;;;;7.23;6.53;;;;;;;;;;5094096;28;20445;-66
2023/04/20 13:19:20;;;;;;;7.67;6.30;;;;;;;;;;5093400;28;20449;-66
2023/04/20 13:21:47;;;;;;;6.70;6.00;;;;;;;;;;5094063;28;20440;-66
2023/04/20 13:24:15;;;;;;;6.97;5.73;;;;;;;;;;5092310;28;20454;-66
2023/04/20 13:26:42;;;;;;;7.73;6.87;;;;;;;;;;5093681;28;20906;-66
2023/04/20 13:29:09;;;;;;;7.10;6.30;;;;;;;;;;5093808;28;20445;-66
2023/04/20 13:31:36;;;;;;;7.83;7.13;;;;;;;;;;5093594;28;20467;-66
2023/04/20 13:34:04;;;;;;;8.50;6.57;;;;;;;;;;5093189;28;20458;-65
2023/04/20 13:36:32;;;;;;;8.93;6.23;;;;;;;;;;5093871;28;20857;-66
2023/04/20 13:38:59;;;;;;;6.80;6.27;;;;;;;;;;5093116;28;20442;-65
2023/04/20 13:41:26;;;;;;;7.10;6.53;;;;;;;;;;5093452;28;20445;-66
2023/04/20 13:43:54;;;;;;;8.20;6.10;;;;;;;;;;5093389;28;20966;-66
2023/04/20 13:46:21;;;;;;;7.80;6.87;;;;;;;;;;5093447;28;20433;-66
2023/04/20 13:48:48;;;;;;;10.43;6.60;;;;;;;;;;5093826;28;20452;-66
2023/04/20 13:51:15;;;;;;;7.83;7.00;;;;;;;;;;5093505;28;20836;-66
2023/04/20 13:53:44;;;;;;;11.67;9.40;;;;;;;;;;5093204;28;20446;-66
2023/04/20 13:56:11;;;;;;;7.73;7.10;;;;;;;;;;5093412;28;20515;-66
2023/04/20 13:58:38;;;;;;;8.40;7.70;;;;;;;;;;5093447;28;20813;-66
2023/04/20 14:01:08;;;;;;;7.73;7.07;;;;;;;;;;5093289;28;20541;-67
2023/04/20 14:03:35;;;;;;;8.83;6.30;;;;;;;;;;5093184;28;20821;-67
2023/04/20 14:06:02;;;;;;;6.67;6.03;;;;;;;;;;5093219;28;20981;-66
2023/04/20 14:08:30;;;;;;;6.97;6.27;;;;;;;;;;5093468;28;20850;-67
2023/04/20 14:11:02;;;;;;;7.57;6.87;;;;;;;;;;5093596;28;20441;-66
2023/04/20 14:13:30;;;;;;;8.20;7.30;;;;;;;;;;5093443;28;20437;-67
2023/04/20 14:15:58;;;;;;;6.77;6.10;;;;;;;;;;5093146;28;20938;-66
2023/04/20 14:18:25;;;;;;;6.77;6.20;;;;;;;;;;5093165;28;20478;-67
2023/04/20 14:20:53;;;;;;;7.27;6.37;;;;;;;;;;5093132;28;20444;-66
2023/04/20 14:23:20;;;;;;;7.07;6.47;;;;;;;;;;5093369;28;20564;-66
2023/04/20 14:25:47;;;;;;;7.50;6.80;;;;;;;;;;5092699;28;20477;-67
2023/04/20 14:28:16;;;;;;;7.77;7.07;;;;;;;;;;5092792;28;20964;-67
2023/04/20 14:30:45;;;;;;;8.20;7.50;;;;;;;;;;5095776;28;20435;-67
2023/04/20 14:33:13;;;;;;;8.80;7.90;;;;;;;;;;5096998;28;20873;-66
2023/04/20 14:35:40;;;;;;;9.70;7.90;;;;;;;;;;5096527;28;20950;-67
2023/04/20 14:38:07;;;;;;;8.37;7.33;;;;;;;;;;5096849;28;20778;-67
2023/04/20 14:40:34;;;;;;;10.30;9.30;;;;;;;;;;5096862;28;20472;-66
2023/04/20 14:43:01;;;;;;;7.87;7.07;;;;;;;;;;5096685;28;20470;-67
2023/04/20 14:45:29;;;;;;;8.33;7.53;;;;;;;;;;5096268;28;20448;-66